Time;durP1;ratioP1;P1;durP2;ratioP2;P2;SDS_P1;SDS_P2;PMS_P1;PMS_P2;Temp;Humidity;BMP_temperature;BMP_pressure;BME280_temperature;BME280_humidity;BME280_pressure;Samples;Min_cycle;Max_cycle;Signal;HPM_P1;HPM_P2
2023/08/16 00:01:17;;;;;;;20.20;19.30;;;21.40;99.90;;;;;;5053298;28;20791;-86
2023/08/16 00:03:44;;;;;;;20.03;19.23;;;21.40;99.90;;;;;;5053304;28;20510;-87
2023/08/16 00:06:11;;;;;;;20.70;19.80;;;21.50;99.90;;;;;;5054284;28;20452;-87
2023/08/16 00:08:38;;;;;;;19.67;18.73;;;21.30;99.90;;;;;;5056838;28;20451;-88
2023/08/16 00:11:05;;;;;;;20.93;19.60;;;21.40;99.90;;;;;;5056222;28;20514;-88
2023/08/16 00:13:35;;;;;;;19.57;18.67;;;21.30;99.90;;;;;;5057338;28;20483;-87
2023/08/16 00:16:03;;;;;;;20.10;19.20;;;21.30;99.90;;;;;;5055860;28;20942;-88
2023/08/16 00:18:31;;;;;;;21.83;20.83;;;21.30;99.90;;;;;;5057761;28;20460;-88
2023/08/16 00:20:59;;;;;;;21.30;20.27;;;21.40;99.90;;;;;;5056967;28;20883;-88
2023/08/16 00:23:26;;;;;;;21.03;19.63;;;21.40;99.90;;;;;;5056243;28;20864;-89
2023/08/16 00:25:53;;;;;;;21.37;20.17;;;21.50;99.90;;;;;;5055892;28;20541;-81
2023/08/16 00:28:19;;;;;;;22.17;20.77;;;21.50;99.90;;;;;;5054936;28;20554;-82
2023/08/16 00:30:46;;;;;;;20.43;19.43;;;21.40;99.90;;;;;;5054411;28;20444;-81
2023/08/16 00:33:14;;;;;;;21.47;20.43;;;21.50;99.90;;;;;;5054363;28;20494;-82
2023/08/16 00:35:41;;;;;;;21.40;20.30;;;21.50;99.90;;;;;;5055181;28;20479;-81
2023/08/16 00:38:08;;;;;;;22.63;21.33;;;21.50;99.90;;;;;;5053993;28;20448;-85
2023/08/16 00:40:35;;;;;;;26.07;24.87;;;21.50;99.90;;;;;;5055203;28;20527;-83
2023/08/16 00:43:01;;;;;;;38.13;36.13;;;21.60;99.90;;;;;;5053495;28;20502;-72
2023/08/16 00:45:30;;;;;;;40.80;38.60;;;21.50;99.90;;;;;;5052766;28;20464;-71
2023/08/16 00:47:57;;;;;;;40.47;38.17;;;21.40;99.90;;;;;;5052758;28;20694;-71
2023/08/16 00:50:27;;;;;;;42.40;39.87;;;21.40;99.90;;;;;;5052825;28;20556;-70
2023/08/16 00:52:56;;;;;;;45.50;42.33;;;21.30;99.90;;;;;;5052696;28;20855;-71
2023/08/16 00:55:23;;;;;;;48.00;44.97;;;21.20;99.90;;;;;;5052641;28;20447;-71
2023/08/16 00:57:50;;;;;;;45.70;42.80;;;21.10;99.90;;;;;;5052611;28;20447;-72
2023/08/16 01:00:16;;;;;;;43.93;41.47;;;21.10;99.90;;;;;;5050120;28;20950;-73
2023/08/16 01:02:43;;;;;;;42.63;40.03;;;21.10;99.90;;;;;;5052341;28;20451;-73
2023/08/16 01:05:10;;;;;;;43.90;41.30;;;21.10;99.90;;;;;;5052469;28;20592;-73
2023/08/16 01:07:38;;;;;;;41.40;38.87;;;21.10;99.90;;;;;;5052417;28;20450;-73
2023/08/16 01:10:05;;;;;;;43.47;40.80;;;21.10;99.90;;;;;;5052408;28;20456;-74
2023/08/16 01:12:37;;;;;;;41.80;39.30;;;21.10;99.90;;;;;;5052263;28;20852;-74
2023/08/16 01:15:08;;;;;;;42.70;40.00;;;21.10;99.90;;;;;;5052499;28;20444;-74
2023/08/16 01:17:36;;;;;;;47.80;44.90;;;21.00;99.90;;;;;;5051623;28;20455;-74
2023/08/16 01:20:07;;;;;;;42.97;40.27;;;20.90;99.90;;;;;;5051929;28;20451;-74
2023/08/16 01:22:45;;;;;;;45.67;42.67;;;20.80;99.90;;;;;;5052121;28;20452;-75
2023/08/16 01:25:20;;;;;;;42.40;39.63;;;20.80;99.90;;;;;;5051997;28;20554;-75
2023/08/16 01:27:51;;;;;;;43.50;40.70;;;20.70;99.90;;;;;;5050240;28;20447;-74
2023/08/16 01:30:20;;;;;;;45.07;42.13;;;20.70;99.90;;;;;;5051711;28;20488;-75
2023/08/16 01:32:47;;;;;;;42.73;39.90;;;20.70;99.90;;;;;;5051289;28;20692;-74
2023/08/16 01:35:14;;;;;;;42.60;40.00;;;20.70;99.90;;;;;;5049776;28;20458;-75
2023/08/16 01:37:42;;;;;;;45.77;42.80;;;20.70;99.90;;;;;;5051085;28;20452;-75
2023/08/16 01:40:09;;;;;;;46.40;43.40;;;20.60;99.90;;;;;;5051555;28;20491;-75
2023/08/16 01:42:40;;;;;;;47.07;43.60;;;20.60;99.90;;;;;;5051709;28;20445;-74
2023/08/16 01:45:10;;;;;;;43.80;41.10;;;20.60;99.90;;;;;;5051739;28;20451;-74
2023/08/16 01:47:37;;;;;;;43.27;40.63;;;20.60;99.90;;;;;;5051614;28;20444;-75
2023/08/16 01:50:06;;;;;;;45.60;42.30;;;20.50;99.90;;;;;;5051247;28;20444;-75
2023/08/16 01:52:34;;;;;;;43.20;40.53;;;20.50;99.90;;;;;;5011357;28;20485;-75
2023/08/16 01:55:01;;;;;;;43.33;40.63;;;20.50;99.90;;;;;;5011024;28;20445;-76
2023/08/16 01:57:27;;;;;;;45.50;42.70;;;20.40;99.90;;;;;;5010993;28;20450;-75
2023/08/16 01:59:54;;;;;;;46.03;43.13;;;20.40;99.90;;;;;;5010565;28;20944;-75
2023/08/16 02:02:24;;;;;;;43.87;41.10;;;20.40;99.90;;;;;;5010651;28;20461;-75
2023/08/16 02:04:50;;;;;;;43.97;41.17;;;20.40;99.90;;;;;;5010817;28;20549;-75
2023/08/16 02:07:17;;;;;;;46.03;43.13;;;20.40;99.90;;;;;;5010731;28;20460;-75
2023/08/16 02:09:44;;;;;;;46.63;43.53;;;20.40;99.90;;;;;;5011182;28;20869;-74
2023/08/16 02:12:10;;;;;;;46.13;42.93;;;20.30;99.90;;;;;;5010736;28;20489;-75
2023/08/16 02:14:37;;;;;;;44.07;41.10;;;20.40;99.90;;;;;;5023154;28;21049;-74
2023/08/16 02:17:04;;;;;;;45.50;42.50;;;20.30;99.90;;;;;;5050001;28;20452;-74
2023/08/16 02:19:32;;;;;;;44.83;41.67;;;20.30;99.90;;;;;;5050628;28;20467;-75
2023/08/16 02:21:58;;;;;;;43.57;40.67;;;20.30;99.90;;;;;;5050150;28;20448;-74
2023/08/16 02:24:25;;;;;;;45.57;42.27;;;20.30;99.90;;;;;;5050159;28;20443;-74
2023/08/16 02:26:52;;;;;;;44.50;41.60;;;20.30;99.90;;;;;;5049852;28;20448;-74
2023/08/16 02:29:19;;;;;;;46.77;43.50;;;20.30;99.90;;;;;;5047425;28;20809;-75
2023/08/16 02:31:45;;;;;;;47.73;44.40;;;20.30;99.90;;;;;;5048683;28;20456;-74
2023/08/16 02:34:12;;;;;;;45.57;42.30;;;20.20;99.90;;;;;;5041985;28;20487;-76
2023/08/16 02:36:40;;;;;;;42.63;39.53;;;20.20;99.90;;;;;;5049295;28;20460;-75
2023/08/16 02:39:08;;;;;;;46.63;43.60;;;20.10;99.90;;;;;;5048397;28;20510;-75
2023/08/16 02:41:35;;;;;;;47.40;44.20;;;20.10;99.90;;;;;;5050301;28;20456;-75
2023/08/16 02:44:01;;;;;;;45.50;42.40;;;20.10;99.90;;;;;;5050234;28;20440;-75
2023/08/16 02:46:28;;;;;;;44.47;41.57;;;20.10;99.90;;;;;;5048679;28;20452;-74
2023/08/16 02:48:55;;;;;;;45.40;42.40;;;20.10;99.90;;;;;;5048368;28;20468;-75
2023/08/16 02:51:21;;;;;;;45.93;42.83;;;20.00;99.90;;;;;;5049218;28;20452;-74
2023/08/16 02:53:49;;;;;;;44.83;41.93;;;20.10;99.90;;;;;;5049108;28;20933;-74
2023/08/16 02:56:16;;;;;;;46.00;42.80;;;20.10;99.90;;;;;;5048075;28;20531;-74
2023/08/16 02:58:43;;;;;;;45.80;42.80;;;20.10;99.90;;;;;;5047751;28;20540;-74
2023/08/16 03:01:09;;;;;;;45.77;42.63;;;20.00;99.90;;;;;;5047924;28;20463;-74
2023/08/16 03:03:36;;;;;;;46.10;43.10;;;20.00;99.90;;;;;;5047081;28;20440;-73
2023/08/16 03:06:03;;;;;;;45.73;42.43;;;20.00;99.90;;;;;;5048682;28;20452;-73
2023/08/16 03:08:30;;;;;;;44.37;41.57;;;20.00;99.90;;;;;;5049502;28;20447;-74
2023/08/16 03:10:58;;;;;;;43.50;40.30;;;20.00;99.90;;;;;;5049362;28;20455;-74
2023/08/16 03:13:25;;;;;;;43.03;39.83;;;20.00;99.90;;;;;;5048947;28;20826;-74
2023/08/16 03:15:51;;;;;;;46.63;43.60;;;20.00;99.90;;;;;;5047173;28;20463;-74
2023/08/16 03:18:18;;;;;;;45.43;42.43;;;20.00;99.90;;;;;;5046545;28;20845;-73
2023/08/16 03:20:45;;;;;;;45.77;42.70;;;19.90;99.90;;;;;;5040529;28;20495;-73
2023/08/16 03:23:12;;;;;;;44.00;41.20;;;19.90;99.90;;;;;;5049445;28;20452;-73
2023/08/16 03:25:38;;;;;;;42.50;39.60;;;20.00;99.90;;;;;;5048094;28;20468;-73
2023/08/16 03:28:07;;;;;;;44.30;41.30;;;20.00;99.90;;;;;;5047919;28;20467;-73
2023/08/16 03:30:33;;;;;;;44.80;41.63;;;20.00;99.90;;;;;;5046269;28;20459;-73
2023/08/16 03:33:00;;;;;;;43.30;40.10;;;20.00;99.90;;;;;;5048348;28;20861;-74
2023/08/16 03:35:27;;;;;;;45.50;42.30;;;20.00;99.90;;;;;;5049578;28;20452;-74
2023/08/16 03:37:54;;;;;;;47.90;44.60;;;19.90;99.90;;;;;;5049456;28;20795;-74
2023/08/16 03:40:20;;;;;;;50.47;46.97;;;20.00;99.90;;;;;;5049073;28;20483;-76
2023/08/16 03:42:47;;;;;;;48.03;44.93;;;19.90;99.90;;;;;;5049266;28;20436;-72
2023/08/16 03:45:15;;;;;;;48.80;45.40;;;19.90;99.90;;;;;;5049274;28;20447;-72
2023/08/16 03:47:43;;;;;;;46.83;43.93;;;19.90;99.90;;;;;;5043718;28;20488;-74
2023/08/16 03:50:10;;;;;;;45.80;42.90;;;19.80;99.90;;;;;;5048887;28;20464;-74
2023/08/16 03:52:37;;;;;;;46.57;43.40;;;19.90;99.90;;;;;;5049344;28;20480;-74
2023/08/16 03:55:04;;;;;;;46.70;43.60;;;19.90;99.90;;;;;;5046016;28;20456;-73
2023/08/16 03:57:31;;;;;;;49.23;45.63;;;19.80;99.90;;;;;;5048170;28;20539;-73
2023/08/16 03:59:58;;;;;;;51.13;47.53;;;19.80;99.90;;;;;;5050633;28;20454;-72
2023/08/16 04:02:26;;;;;;;52.67;49.17;;;19.80;99.90;;;;;;5052958;28;20443;-73
2023/08/16 04:04:53;;;;;;;49.37;45.93;;;19.90;99.90;;;;;;5052771;28;20448;-74
2023/08/16 04:07:20;;;;;;;49.77;46.27;;;19.90;99.90;;;;;;5052358;28;20444;-73
2023/08/16 04:09:47;;;;;;;52.17;48.37;;;19.90;99.90;;;;;;5052164;28;20459;-73
2023/08/16 04:12:14;;;;;;;51.37;47.57;;;19.90;99.90;;;;;;5051915;28;20452;-74
2023/08/16 04:14:40;;;;;;;50.30;46.80;;;19.90;99.90;;;;;;5052785;28;20451;-74
2023/08/16 04:17:07;;;;;;;46.53;43.23;;;19.80;99.90;;;;;;5052290;28;20447;-74
2023/08/16 04:19:35;;;;;;;48.13;44.73;;;19.80;99.90;;;;;;5052433;28;20466;-73
2023/08/16 04:22:02;;;;;;;46.47;43.20;;;19.70;99.90;;;;;;5052666;28;20441;-74
2023/08/16 04:24:29;;;;;;;45.30;42.27;;;19.70;99.90;;;;;;5052842;28;20471;-74
2023/08/16 04:26:55;;;;;;;45.53;42.53;;;19.70;99.90;;;;;;5053010;28;20945;-75
2023/08/16 04:29:22;;;;;;;46.70;43.57;;;19.70;99.90;;;;;;5052603;28;20809;-74
2023/08/16 04:31:49;;;;;;;45.33;42.43;;;19.70;99.90;;;;;;5052009;28;20563;-73
2023/08/16 04:34:16;;;;;;;43.50;40.40;;;19.70;99.90;;;;;;5052407;28;20492;-72
2023/08/16 04:36:44;;;;;;;45.73;42.83;;;19.60;99.90;;;;;;5052705;28;20456;-73
2023/08/16 04:39:12;;;;;;;44.73;41.83;;;19.60;99.90;;;;;;5052487;28;21032;-73
2023/08/16 04:41:38;;;;;;;44.93;41.93;;;19.60;99.90;;;;;;5052380;28;20497;-75
2023/08/16 04:44:06;;;;;;;44.40;41.60;;;19.60;99.90;;;;;;5052653;28;20448;-74
2023/08/16 04:46:33;;;;;;;46.57;43.50;;;19.70;99.90;;;;;;5052164;28;20444;-74
2023/08/16 04:48:59;;;;;;;43.87;41.07;;;19.60;99.90;;;;;;5032463;28;20456;-74
2023/08/16 04:51:26;;;;;;;45.30;42.30;;;19.70;99.90;;;;;;5032034;28;20445;-74
2023/08/16 04:53:54;;;;;;;43.80;40.80;;;19.60;99.90;;;;;;5032017;28;20567;-74
2023/08/16 04:56:21;;;;;;;42.03;39.20;;;19.70;99.90;;;;;;5031174;28;20457;-74
2023/08/16 04:58:47;;;;;;;42.93;40.27;;;19.80;99.90;;;;;;5029626;28;20456;-74
2023/08/16 05:01:14;;;;;;;44.13;41.43;;;19.80;99.90;;;;;;5029230;28;20463;-74
2023/08/16 05:03:47;;;;;;;47.13;43.83;;;19.90;99.90;;;;;;5031912;28;20452;-74
2023/08/16 05:06:14;;;;;;;47.40;44.50;;;20.00;99.90;;;;;;5031690;28;20448;-73
2023/08/16 05:08:40;;;;;;;44.33;41.73;;;20.00;99.90;;;;;;5030143;28;20449;-74
2023/08/16 05:11:08;;;;;;;45.17;42.50;;;20.20;99.90;;;;;;5031364;28;20453;-73
2023/08/16 05:13:35;;;;;;;42.20;39.90;;;20.50;99.90;;;;;;5029612;28;20515;-74
2023/08/16 05:16:02;;;;;;;39.17;36.63;;;20.70;99.90;;;;;;5031368;28;20452;-74
2023/08/16 05:19:17;;;;;;;35.07;33.00;;;20.90;99.90;;;;;;5031303;28;20480;-74
2023/08/16 05:21:44;;;;;;;29.17;27.33;;;21.20;99.90;;;;;;5010976;28;20468;-77
2023/08/16 05:24:11;;;;;;;25.70;23.97;;;21.50;99.90;;;;;;5038800;28;20448;-75
2023/08/16 05:26:39;;;;;;;25.20;23.63;;;21.70;99.90;;;;;;5048169;28;20495;-75
2023/08/16 05:29:06;;;;;;;23.20;22.00;;;22.00;99.90;;;;;;5045811;28;20510;-76
2023/08/16 05:31:32;;;;;;;22.20;20.57;;;22.40;99.90;;;;;;5049414;28;20947;-77
2023/08/16 05:33:59;;;;;;;24.30;22.60;;;22.70;99.90;;;;;;5045739;28;20484;-77
2023/08/16 05:36:29;;;;;;;23.13;21.23;;;22.80;99.90;;;;;;5049746;28;20455;-76
2023/08/16 05:38:56;;;;;;;23.63;22.30;;;22.90;99.90;;;;;;5049148;28;20544;-81
2023/08/16 05:41:23;;;;;;;22.90;21.30;;;23.10;99.90;;;;;;5051152;28;20452;-85
2023/08/16 05:43:51;;;;;;;22.37;20.97;;;23.40;99.90;;;;;;5035396;28;20753;-86
2023/08/16 05:46:18;;;;;;;21.50;20.40;;;23.80;99.90;;;;;;5053534;28;20448;-85
2023/08/16 05:48:45;;;;;;;22.03;20.63;;;24.00;99.90;;;;;;5049032;28;20475;-85
2023/08/16 05:51:11;;;;;;;21.97;20.50;;;24.10;99.90;;;;;;5050995;28;20891;-84
2023/08/16 05:53:38;;;;;;;20.80;19.70;;;24.20;99.90;;;;;;5049892;28;20490;-83
2023/08/16 05:56:05;;;;;;;21.40;20.10;;;24.10;99.90;;;;;;5050741;28;20456;-83
2023/08/16 05:58:31;;;;;;;21.27;19.93;;;24.30;99.90;;;;;;5048763;28;20456;-81
2023/08/16 06:00:59;;;;;;;20.00;18.60;;;24.20;99.90;;;;;;5052325;28;20456;-82
2023/08/16 06:03:26;;;;;;;21.10;20.07;;;24.00;99.90;;;;;;5051364;28;20474;-82
2023/08/16 06:05:53;;;;;;;20.80;19.50;;;24.00;99.90;;;;;;5050627;28;20460;-81
2023/08/16 06:08:20;;;;;;;20.47;19.27;;;24.20;99.90;;;;;;5049164;28;20452;-80
2023/08/16 06:10:46;;;;;;;18.73;17.83;;;24.30;99.90;;;;;;5048989;28;20448;-81
2023/08/16 06:13:13;;;;;;;18.73;17.70;;;24.50;99.90;;;;;;5049840;28;20491;-80
2023/08/16 06:15:40;;;;;;;19.10;18.10;;;24.80;99.90;;;;;;5049087;28;20461;-79
2023/08/16 06:18:08;;;;;;;20.70;19.37;;;24.90;99.90;;;;;;5049109;28;20487;-79
2023/08/16 06:20:35;;;;;;;21.23;19.80;;;24.90;99.90;;;;;;5048397;28;20452;-78
2023/08/16 06:23:02;;;;;;;22.43;20.90;;;25.30;99.90;;;;;;5048283;28;20460;-77
2023/08/16 06:25:29;;;;;;;21.77;20.37;;;25.40;99.90;;;;;;5048813;28;20495;-77
2023/08/16 06:27:56;;;;;;;21.43;20.13;;;25.40;99.90;;;;;;5048752;28;20881;-76
2023/08/16 06:30:22;;;;;;;22.03;20.53;;;25.20;99.90;;;;;;5047530;28;20456;-76
2023/08/16 06:32:49;;;;;;;21.10;19.90;;;25.30;99.90;;;;;;5048451;28;20456;-77
2023/08/16 06:35:17;;;;;;;20.57;19.47;;;25.70;99.90;;;;;;5048801;28;20460;-76
2023/08/16 06:37:46;;;;;;;21.20;19.87;;;25.90;99.90;;;;;;5047840;28;20460;-75
2023/08/16 06:40:13;;;;;;;22.73;21.13;;;25.70;99.90;;;;;;5042252;28;21225;-75
2023/08/16 06:42:40;;;;;;;20.70;19.50;;;25.50;99.90;;;;;;5047803;28;20531;-75
2023/08/16 06:45:08;;;;;;;21.70;20.20;;;25.20;99.90;;;;;;5042525;28;20950;-75
2023/08/16 06:47:35;;;;;;;22.27;20.80;;;24.50;99.90;;;;;;5048776;28;20444;-75
2023/08/16 06:50:04;;;;;;;22.63;21.10;;;24.30;99.90;;;;;;5047971;28;20958;-75
2023/08/16 06:52:32;;;;;;;21.73;20.63;;;24.20;99.90;;;;;;5048476;28;20795;-74
2023/08/16 06:54:59;;;;;;;24.20;22.70;;;24.20;99.90;;;;;;5048321;28;20488;-74
2023/08/16 06:57:26;;;;;;;22.13;20.40;;;24.00;99.90;;;;;;5047879;28;20482;-75
2023/08/16 06:59:52;;;;;;;20.30;19.00;;;23.90;99.90;;;;;;5048221;28;20456;-74
2023/08/16 07:02:20;;;;;;;19.23;18.10;;;23.90;99.90;;;;;;5048309;28;20451;-75
2023/08/16 07:04:48;;;;;;;19.10;18.03;;;24.10;99.90;;;;;;5046101;28;20452;-75
2023/08/16 07:07:14;;;;;;;19.60;18.30;;;24.70;99.90;;;;;;5048449;28;20457;-75
2023/08/16 07:09:42;;;;;;;18.87;17.23;;;25.40;99.90;;;;;;5048028;28;20539;-76
2023/08/16 07:12:09;;;;;;;18.23;17.33;;;26.30;99.90;;;;;;5047884;28;20514;-75
2023/08/16 07:14:36;;;;;;;17.20;16.30;;;27.20;99.90;;;;;;5047307;28;20511;-75
2023/08/16 07:17:05;;;;;;;18.13;17.20;;;27.90;99.90;;;;;;5046378;28;20449;-75
2023/08/16 07:19:31;;;;;;;17.77;16.77;;;28.70;99.90;;;;;;5040530;28;20478;-75
2023/08/16 07:21:58;;;;;;;16.57;15.70;;;29.00;99.90;;;;;;5048154;28;20456;-75
2023/08/16 07:24:25;;;;;;;19.60;17.63;;;29.00;99.90;;;;;;5039243;28;20448;-75
2023/08/16 07:26:53;;;;;;;18.60;17.70;;;29.30;99.90;;;;;;5047612;28;20802;-74
2023/08/16 07:29:20;;;;;;;17.83;16.80;;;29.60;99.90;;;;;;5048199;28;20476;-75
2023/08/16 07:31:48;;;;;;;18.93;18.03;;;29.70;99.90;;;;;;5046512;28;20463;-74
2023/08/16 07:34:14;;;;;;;17.83;16.87;;;29.80;99.90;;;;;;5049393;28;20484;-75
2023/08/16 07:36:41;;;;;;;17.97;16.97;;;30.10;99.90;;;;;;5051326;28;20463;-74
2023/08/16 07:39:09;;;;;;;18.13;17.23;;;30.60;99.90;;;;;;5051173;28;20548;-75
2023/08/16 07:41:36;;;;;;;17.27;16.20;;;30.80;99.90;;;;;;5050398;28;20451;-74
2023/08/16 07:44:04;;;;;;;16.33;15.43;;;31.10;99.80;;;;;;5049808;28;20462;-75
2023/08/16 07:46:31;;;;;;;18.10;17.17;;;31.00;99.40;;;;;;5051650;28;20452;-75
2023/08/16 07:48:59;;;;;;;17.27;16.17;;;30.80;99.70;;;;;;5050206;28;20452;-74
2023/08/16 07:51:25;;;;;;;17.93;16.93;;;30.50;99.90;;;;;;5051054;28;20492;-74
2023/08/16 07:53:52;;;;;;;16.30;15.50;;;30.70;99.90;;;;;;5051530;28;20502;-75
2023/08/16 07:56:19;;;;;;;17.23;16.43;;;31.00;99.80;;;;;;5051985;28;20463;-75
2023/08/16 07:58:45;;;;;;;16.43;15.60;;;31.50;98.70;;;;;;5049662;28;20946;-75
2023/08/16 08:01:13;;;;;;;18.30;17.23;;;32.40;97.40;;;;;;5051572;28;20482;-75
2023/08/16 08:03:40;;;;;;;17.63;16.73;;;32.40;96.90;;;;;;5051192;28;20452;-75
2023/08/16 08:06:09;;;;;;;18.73;17.60;;;32.20;97.40;;;;;;5047376;28;20448;-75
2023/08/16 08:08:35;;;;;;;18.27;17.27;;;32.60;97.00;;;;;;5050676;28;20452;-75
2023/08/16 08:11:02;;;;;;;17.73;16.93;;;33.20;96.30;;;;;;5050450;28;20448;-75
2023/08/16 08:13:29;;;;;;;17.70;16.70;;;33.60;94.70;;;;;;5041401;28;20455;-75
2023/08/16 08:15:55;;;;;;;18.13;17.23;;;34.80;92.60;;;;;;5049261;28;20455;-75
2023/08/16 08:18:23;;;;;;;18.63;17.57;;;35.20;91.20;;;;;;5051053;28;20551;-75
2023/08/16 08:20:50;;;;;;;18.77;17.80;;;35.40;91.20;;;;;;5045290;28;20456;-75
2023/08/16 08:23:17;;;;;;;18.93;17.93;;;35.10;91.50;;;;;;5049480;28;20488;-75
2023/08/16 08:25:44;;;;;;;18.57;17.67;;;35.20;90.60;;;;;;5050402;28;20504;-75
2023/08/16 08:28:11;;;;;;;18.73;17.87;;;35.80;90.40;;;;;;5050868;28;20534;-75
2023/08/16 08:30:38;;;;;;;18.53;17.47;;;35.80;90.00;;;;;;5050996;28;20476;-75
2023/08/16 08:33:05;;;;;;;18.90;18.00;;;35.80;90.20;;;;;;5050460;28;20801;-75
2023/08/16 08:35:35;;;;;;;18.47;17.57;;;36.30;88.20;;;;;;5040248;28;20629;-75
2023/08/16 08:38:01;;;;;;;18.40;17.23;;;36.80;87.20;;;;;;5049866;28;20463;-74
2023/08/16 08:40:31;;;;;;;19.13;18.23;;;36.70;86.00;;;;;;5049973;28;20538;-75
2023/08/16 08:42:59;;;;;;;19.23;18.37;;;37.20;83.90;;;;;;5049215;28;20451;-75
2023/08/16 08:45:27;;;;;;;19.43;18.33;;;38.00;83.40;;;;;;5049797;28;20505;-75
2023/08/16 08:47:56;;;;;;;18.93;18.13;;;38.60;80.80;;;;;;5032380;28;20452;-75
2023/08/16 08:50:23;;;;;;;21.10;19.67;;;38.90;78.00;;;;;;5049321;28;21336;-74
2023/08/16 08:52:52;;;;;;;19.37;18.57;;;38.70;77.20;;;;;;5049865;28;20451;-75
2023/08/16 08:55:19;;;;;;;18.33;17.63;;;38.20;79.50;;;;;;5050463;28;20480;-75
2023/08/16 08:57:50;;;;;;;20.13;19.20;;;36.70;82.40;;;;;;5049647;28;20492;-74
2023/08/16 09:00:19;;;;;;;18.33;17.50;;;36.70;83.50;;;;;;5050034;28;20452;-74
2023/08/16 09:02:48;;;;;;;19.27;18.13;;;36.20;83.70;;;;;;5050303;28;20905;-75
2023/08/16 09:05:18;;;;;;;18.60;17.57;;;36.20;84.90;;;;;;5045516;28;20451;-74
2023/08/16 09:07:45;;;;;;;20.30;19.20;;;36.80;84.20;;;;;;5048690;28;20464;-75
2023/08/16 09:10:14;;;;;;;18.73;17.73;;;37.30;82.00;;;;;;5046932;28;20491;-74
2023/08/16 09:12:41;;;;;;;18.60;17.60;;;37.40;82.00;;;;;;5049687;28;20471;-74
2023/08/16 09:15:10;;;;;;;19.60;18.43;;;37.20;81.80;;;;;;5048310;28;20493;-75
2023/08/16 09:17:37;;;;;;;18.33;17.43;;;37.60;80.60;;;;;;5049983;28;20467;-75
2023/08/16 09:20:05;;;;;;;19.43;18.53;;;36.80;83.20;;;;;;5048946;28;20448;-75
2023/08/16 09:22:32;;;;;;;18.10;17.20;;;36.50;82.80;;;;;;5050083;28;20444;-75
2023/08/16 09:24:59;;;;;;;18.23;17.27;;;36.50;84.50;;;;;;5048417;28;20464;-74
2023/08/16 09:27:28;;;;;;;19.40;18.50;;;37.60;81.30;;;;;;5049904;28;20518;-75
2023/08/16 09:29:55;;;;;;;19.23;18.07;;;38.50;78.30;;;;;;5045115;28;20497;-75
2023/08/16 09:32:23;;;;;;;19.60;18.77;;;38.70;77.60;;;;;;5049970;28;20930;-75
2023/08/16 09:34:50;;;;;;;20.37;19.23;;;38.80;76.30;;;;;;5049629;28;20483;-76
2023/08/16 09:37:20;;;;;;;20.30;19.50;;;39.40;73.90;;;;;;5045781;28;20456;-74
2023/08/16 09:39:55;;;;;;;19.93;19.03;;;39.80;73.10;;;;;;5049705;28;20505;-74
2023/08/16 09:42:32;;;;;;;20.60;19.60;;;39.50;74.30;;;;;;5042485;28;20455;-74
2023/08/16 09:44:59;;;;;;;21.53;20.40;;;39.80;72.60;;;;;;5047953;28;20458;-74
2023/08/16 09:47:28;;;;;;;19.53;18.73;;;39.70;71.00;;;;;;5049546;28;20470;-74
2023/08/16 09:49:55;;;;;;;21.30;20.23;;;40.00;71.70;;;;;;5049797;28;20719;-75
2023/08/16 09:52:22;;;;;;;19.57;18.53;;;40.40;70.10;;;;;;5049709;28;20447;-74
2023/08/16 09:54:50;;;;;;;20.67;19.77;;;41.10;68.30;;;;;;5049002;28;20491;-74
2023/08/16 09:57:17;;;;;;;19.40;18.07;;;40.90;68.00;;;;;;5045777;28;20832;-75
2023/08/16 09:59:46;;;;;;;19.27;18.37;;;40.30;69.50;;;;;;5048912;28;20456;-74
2023/08/16 10:02:14;;;;;;;21.47;20.37;;;40.40;69.30;;;;;;5048314;28;20470;-75
2023/08/16 10:04:41;;;;;;;20.33;19.43;;;39.70;70.80;;;;;;5049378;28;20458;-75
2023/08/16 10:07:08;;;;;;;18.27;17.47;;;39.10;73.30;;;;;;5048307;28;20476;-75
2023/08/16 10:09:35;;;;;;;19.53;18.73;;;38.60;73.60;;;;;;5048470;28;20513;-74
2023/08/16 10:12:03;;;;;;;20.20;19.40;;;38.00;75.60;;;;;;5047387;28;20795;-75
2023/08/16 10:14:31;;;;;;;20.47;19.10;;;37.80;77.00;;;;;;5045892;28;20990;-75
2023/08/16 10:17:02;;;;;;;21.37;20.23;;;37.10;78.40;;;;;;5048766;28;20456;-75
2023/08/16 10:19:31;;;;;;;19.80;18.93;;;37.10;78.80;;;;;;5044338;28;20448;-75
2023/08/16 10:21:59;;;;;;;21.27;20.07;;;36.50;80.70;;;;;;5047662;28;20471;-75
2023/08/16 10:24:30;;;;;;;20.10;19.30;;;37.60;79.30;;;;;;5045386;28;20448;-75
2023/08/16 10:26:59;;;;;;;20.13;19.20;;;38.60;75.30;;;;;;5050458;28;20448;-75
2023/08/16 10:29:29;;;;;;;20.03;19.03;;;39.70;72.20;;;;;;5049371;28;20815;-75
2023/08/16 10:31:56;;;;;;;22.03;21.00;;;41.10;69.30;;;;;;5048953;28;20847;-75
2023/08/16 10:34:27;;;;;;;23.10;21.70;;;41.40;67.10;;;;;;5046727;28;20466;-75
2023/08/16 10:36:54;;;;;;;23.50;22.20;;;41.30;67.30;;;;;;5040823;28;20440;-76
2023/08/16 10:39:23;;;;;;;22.37;21.27;;;41.70;66.50;;;;;;5049157;28;20491;-75
2023/08/16 10:42:02;;;;;;;23.70;22.60;;;40.30;68.40;;;;;;5049411;28;20872;-75
2023/08/16 10:44:32;;;;;;;22.03;20.73;;;39.40;71.20;;;;;;5045351;28;20786;-75
2023/08/16 10:46:58;;;;;;;21.67;19.87;;;38.60;72.90;;;;;;5048681;28;20451;-75
2023/08/16 10:49:36;;;;;;;23.60;22.60;;;39.50;70.20;;;;;;5048913;28;20448;-76
2023/08/16 10:52:03;;;;;;;22.23;21.07;;;40.20;67.80;;;;;;5048737;28;20831;-75
2023/08/16 10:54:34;;;;;;;22.83;21.57;;;40.80;65.50;;;;;;5047197;28;20491;-75
2023/08/16 10:57:07;;;;;;;23.07;22.07;;;41.40;64.50;;;;;;5049251;28;20451;-75
2023/08/16 10:59:38;;;;;;;23.73;22.60;;;41.50;65.20;;;;;;5049203;28;20524;-75
2023/08/16 11:02:15;;;;;;;22.30;21.20;;;42.10;62.90;;;;;;5048123;28;20455;-76
2023/08/16 11:04:43;;;;;;;21.73;20.73;;;41.30;63.80;;;;;;5046665;28;20534;-75
2023/08/16 11:07:12;;;;;;;21.73;20.77;;;40.10;65.70;;;;;;5049566;28;20840;-75
2023/08/16 11:09:39;;;;;;;21.17;20.37;;;40.10;66.20;;;;;;5044876;28;20484;-75
2023/08/16 11:12:07;;;;;;;21.73;20.83;;;40.80;65.10;;;;;;5052764;28;21003;-75
2023/08/16 11:14:36;;;;;;;23.17;22.17;;;41.10;64.90;;;;;;5052946;28;20497;-76
2023/08/16 11:17:03;;;;;;;22.40;21.50;;;42.00;62.10;;;;;;5051900;28;20460;-76
2023/08/16 11:19:30;;;;;;;22.90;21.80;;;42.50;60.70;;;;;;5052054;28;20201;-75
2023/08/16 11:22:01;;;;;;;22.00;21.00;;;42.50;60.50;;;;;;5051048;28;20666;-75
2023/08/16 11:24:28;;;;;;;23.27;22.27;;;42.30;60.40;;;;;;5045241;28;20193;-75
2023/08/16 11:26:57;;;;;;;23.40;22.45;;;43.20;58.80;;;;;;5053504;28;20197;-75
2023/08/16 11:29:24;;;;;;;22.80;21.80;;;44.10;57.10;;;;;;5052772;28;20204;-75
2023/08/16 11:31:56;;;;;;;22.63;21.47;;;42.80;58.10;;;;;;5052617;28;20209;-75
2023/08/16 11:34:23;;;;;;;23.90;23.00;;;42.80;58.50;;;;;;5052629;28;20229;-76
2023/08/16 11:36:50;;;;;;;22.97;22.03;;;41.80;59.50;;;;;;5053300;28;20193;-75
2023/08/16 11:39:18;;;;;;;25.30;24.10;;;41.00;60.80;;;;;;5049987;28;20482;-75
2023/08/16 11:41:45;;;;;;;22.80;21.60;;;40.70;61.10;;;;;;5052031;28;20478;-75
2023/08/16 11:44:12;;;;;;;23.27;22.00;;;39.70;62.80;;;;;;5053605;28;20497;-74
2023/08/16 11:46:43;;;;;;;21.03;20.13;;;39.50;64.10;;;;;;5053230;28;20486;-74
2023/08/16 11:49:12;;;;;;;21.87;20.87;;;39.40;65.00;;;;;;5051366;28;20497;-75
2023/08/16 11:51:40;;;;;;;24.33;23.33;;;40.80;62.60;;;;;;5049858;28;20448;-76
2023/08/16 11:54:08;;;;;;;24.17;23.17;;;41.80;59.30;;;;;;5051021;28;20462;-75
2023/08/16 11:56:38;;;;;;;23.33;22.13;;;41.70;59.10;;;;;;5051964;28;20539;-76
2023/08/16 11:59:05;;;;;;;22.10;21.10;;;41.10;59.60;;;;;;5051673;28;20459;-75
2023/08/16 12:01:32;;;;;;;22.97;21.87;;;40.50;60.30;;;;;;5040960;28;20483;-76
2023/08/16 12:04:00;;;;;;;21.60;20.80;;;40.40;60.80;;;;;;5051952;28;20546;-75
2023/08/16 12:06:28;;;;;;;22.67;21.53;;;40.30;60.20;;;;;;5049396;28;20533;-75
2023/08/16 12:08:55;;;;;;;21.23;20.17;;;38.80;61.50;;;;;;5053164;28;20894;-75
2023/08/16 12:11:29;;;;;;;22.10;20.90;;;38.10;64.40;;;;;;5051528;28;20462;-76
2023/08/16 12:13:59;;;;;;;23.43;22.30;;;38.50;64.00;;;;;;5050888;28;20459;-75
2023/08/16 12:16:26;;;;;;;21.10;20.10;;;38.30;64.10;;;;;;5049459;28;20446;-75
2023/08/16 12:18:53;;;;;;;21.27;20.37;;;38.70;64.30;;;;;;5051428;28;20612;-75
2023/08/16 12:21:28;;;;;;;20.57;19.77;;;39.20;63.20;;;;;;5050752;28;20463;-75
2023/08/16 12:23:54;;;;;;;21.13;20.30;;;39.40;60.80;;;;;;5051438;28;20462;-75
2023/08/16 12:26:21;;;;;;;21.53;20.57;;;39.70;60.30;;;;;;5048164;28;20494;-75
2023/08/16 12:28:48;;;;;;;21.23;20.33;;;39.40;60.90;;;;;;5050932;28;20538;-75
2023/08/16 12:31:16;;;;;;;19.67;18.77;;;39.50;59.70;;;;;;5049723;28;20463;-75